Meteo Giornale » Osservazioni meteo Stati Uniti (USA) » Atlantic City

ore: 21:54 - Osservazioni Meteo Atlantic City
Lat. 39° 27' N Lon. 74° 35' W Alt. 23 metri s.l.m.

nuvoloso

22 °C

Nuvoloso

Temp. 24 Ore

0 °C

26 °C

Sud-Est

7.4 Km/h

Dew point 22 °C

Umidità 100 %

Visibilità  10 Km

Il sole sorge alle ore 06:26

Il sole tramonta alle ore 19:31

Data e Ora Cielo e Fenomeni T °C DP °C Um. % Pres. hPa Vis. km Vento km/h
Oggi h: 21:54 nuvoloso Nuvoloso 22 22 100 1018 10 SE 7.4
Oggi h: 20:54 sereno Sereno 0 0 83 0 10 N 0
Oggi h: 19:54 nuvoloso Nuvoloso 23 21 88 1018 10 S/SE 9.3
Oggi h: 18:54 nuvoloso Nuvoloso 23 21 88 1019 10 E/SE 7.4
Oggi h: 17:54 sereno Sereno 0 0 43 0 0 N 0
Oggi h: 16:54 nuvoloso Nuvoloso 24 21 83 1019 10 E 9.3
Oggi h: 15:54 nuvoloso Nuvoloso 24 22 88 1019 10 E/SE 11.1
Oggi h: 14:54 nuvoloso Nuvoloso 26 22 78 1019 10 SE 16.7
Oggi h: 12:54 sereno Sereno 0 0 69 0 0 N 0
Oggi h: 11:54 nuvoloso Nuvoloso 26 22 78 1020 10 E/NE 9.3
Oggi h: 10:54 nuvoloso Nuvoloso 24 22 88 1020 10 E 13
Oggi h: 09:54 sereno Sereno 22 22 100 1020 10 N/NE 7.4
Oggi h: 08:54 molto_nuvoloso Molto Nuvoloso 21 21 100 1020 10 NE 7.4
Oggi h: 07:54 molto_nuvoloso Molto Nuvoloso 20 20 100 1020 11 N 0
Oggi h: 07:01 sereno Sereno 0 0 100 0 0 N 0
Oggi h: 06:54 nebbia Nebbia 20 20 100 1019 2 N 0
Oggi h: 06:28 nebbia Nebbia 20 20 100 1019 2 N 0
Oggi h: 05:54 molto_nuvoloso Molto Nuvoloso 21 21 100 1018 10 N 0
Oggi h: 04:54 molto_nuvoloso Molto Nuvoloso 21 21 100 1018 10 N 0
Oggi h: 03:54 sereno Sereno 0 0 78 0 0 N 0
Oggi h: 02:54 sereno Sereno 0 0 88 0 0 N 0
Oggi h: 02:50 sereno Sereno 0 0 94 0 0 N 0
Oggi h: 02:35 coperto_temporali Temporale 0 0 100 0 0 N 0
Oggi h: 01:54 sereno Sereno 0 0 73 0 0 N 0
Oggi h: 00:54 sereno Sereno 23 23 100 1019 10 O/SO 13
Ieri h: 23:54 sereno Sereno 0 0 69 0 0 N 0
Ieri h: 22:54 sereno Sereno 0 0 40 0 0 N 0